sensor_id;sensor_type;location;lat;lon;timestamp;temperature;humidity
80228;DHT22;69539;42.138;24.742;2024-03-08T00:00:15;13.20;46.50
80228;DHT22;69539;42.138;24.742;2024-03-08T00:02:44;13.20;46.50
80228;DHT22;69539;42.138;24.742;2024-03-08T00:05:10;13.10;46.40
80228;DHT22;69539;42.138;24.742;2024-03-08T00:07:37;13.10;46.40
80228;DHT22;69539;42.138;24.742;2024-03-08T00:10:03;13.10;46.30
80228;DHT22;69539;42.138;24.742;2024-03-08T00:12:29;13.10;46.30
80228;DHT22;69539;42.138;24.742;2024-03-08T00:14:56;13.10;46.30
80228;DHT22;69539;42.138;24.742;2024-03-08T00:17:21;13.10;46.40
80228;DHT22;69539;42.138;24.742;2024-03-08T00:19:53;13.00;46.30
80228;DHT22;69539;42.138;24.742;2024-03-08T00:22:18;13.00;46.40
80228;DHT22;69539;42.138;24.742;2024-03-08T00:24:44;13.00;46.40
80228;DHT22;69539;42.138;24.742;2024-03-08T00:27:11;13.00;46.50
80228;DHT22;69539;42.138;24.742;2024-03-08T00:29:37;13.00;46.50
80228;DHT22;69539;42.138;24.742;2024-03-08T00:32:04;13.00;46.50
80228;DHT22;69539;42.138;24.742;2024-03-08T00:34:30;12.90;46.40
80228;DHT22;69539;42.138;24.742;2024-03-08T00:36:57;13.00;46.60
80228;DHT22;69539;42.138;24.742;2024-03-08T00:39:23;13.00;46.50
80228;DHT22;69539;42.138;24.742;2024-03-08T00:41:49;12.90;46.60
80228;DHT22;69539;42.138;24.742;2024-03-08T00:44:15;13.00;46.60
80228;DHT22;69539;42.138;24.742;2024-03-08T00:46:40;12.90;46.60
80228;DHT22;69539;42.138;24.742;2024-03-08T00:49:06;12.90;46.60
80228;DHT22;69539;42.138;24.742;2024-03-08T00:51:32;12.90;46.60
80228;DHT22;69539;42.138;24.742;2024-03-08T00:53:58;12.90;46.50
80228;DHT22;69539;42.138;24.742;2024-03-08T00:56:23;12.90;46.60
80228;DHT22;69539;42.138;24.742;2024-03-08T00:58:50;12.90;46.60
80228;DHT22;69539;42.138;24.742;2024-03-08T01:01:18;12.90;46.60
80228;DHT22;69539;42.138;24.742;2024-03-08T01:03:43;12.90;46.60
80228;DHT22;69539;42.138;24.742;2024-03-08T01:06:09;12.90;46.70
80228;DHT22;69539;42.138;24.742;2024-03-08T01:08:35;12.90;46.60
80228;DHT22;69539;42.138;24.742;2024-03-08T01:11:04;12.90;46.70
80228;DHT22;69539;42.138;24.742;2024-03-08T01:13:30;12.80;46.60
80228;DHT22;69539;42.138;24.742;2024-03-08T01:15:56;12.80;46.60
80228;DHT22;69539;42.138;24.742;2024-03-08T01:18:22;12.80;46.70
80228;DHT22;69539;42.138;24.742;2024-03-08T01:20:47;12.80;46.80
80228;DHT22;69539;42.138;24.742;2024-03-08T01:23:13;12.80;46.80
80228;DHT22;69539;42.138;24.742;2024-03-08T01:25:39;12.80;46.90
80228;DHT22;69539;42.138;24.742;2024-03-08T01:28:05;12.80;46.90
80228;DHT22;69539;42.138;24.742;2024-03-08T01:30:30;12.80;46.90
80228;DHT22;69539;42.138;24.742;2024-03-08T01:32:58;12.80;46.90
80228;DHT22;69539;42.138;24.742;2024-03-08T01:35:23;12.80;47.00
80228;DHT22;69539;42.138;24.742;2024-03-08T01:37:49;12.80;47.10
80228;DHT22;69539;42.138;24.742;2024-03-08T01:40:15;12.80;47.00
80228;DHT22;69539;42.138;24.742;2024-03-08T01:42:42;12.80;47.10
80228;DHT22;69539;42.138;24.742;2024-03-08T01:45:08;12.80;47.10
80228;DHT22;69539;42.138;24.742;2024-03-08T01:47:35;12.80;47.00
80228;DHT22;69539;42.138;24.742;2024-03-08T01:50:02;12.80;47.10
80228;DHT22;69539;42.138;24.742;2024-03-08T01:52:32;12.80;47.10
80228;DHT22;69539;42.138;24.742;2024-03-08T01:55:02;12.80;47.10
80228;DHT22;69539;42.138;24.742;2024-03-08T01:57:31;12.80;47.10
80228;DHT22;69539;42.138;24.742;2024-03-08T01:59:59;12.80;47.10
80228;DHT22;69539;42.138;24.742;2024-03-08T02:02:32;12.80;47.00
80228;DHT22;69539;42.138;24.742;2024-03-08T02:04:58;12.80;47.00
80228;DHT22;69539;42.138;24.742;2024-03-08T02:07:23;12.80;46.90
80228;DHT22;69539;42.138;24.742;2024-03-08T02:09:49;12.70;46.90
80228;DHT22;69539;42.138;24.742;2024-03-08T02:12:14;12.70;47.00
80228;DHT22;69539;42.138;24.742;2024-03-08T02:14:40;12.70;47.00
80228;DHT22;69539;42.138;24.742;2024-03-08T02:17:06;12.70;47.00
80228;DHT22;69539;42.138;24.742;2024-03-08T02:19:31;12.70;47.00
80228;DHT22;69539;42.138;24.742;2024-03-08T02:21:58;12.70;47.10
80228;DHT22;69539;42.138;24.742;2024-03-08T02:24:24;12.70;47.20
80228;DHT22;69539;42.138;24.742;2024-03-08T02:26:51;12.60;47.10
80228;DHT22;69539;42.138;24.742;2024-03-08T02:29:16;12.70;47.20
80228;DHT22;69539;42.138;24.742;2024-03-08T02:31:42;12.70;47.20
80228;DHT22;69539;42.138;24.742;2024-03-08T02:34:08;12.70;47.20
80228;DHT22;69539;42.138;24.742;2024-03-08T02:36:35;12.70;47.30
80228;DHT22;69539;42.138;24.742;2024-03-08T02:39:03;12.70;47.40
80228;DHT22;69539;42.138;24.742;2024-03-08T02:41:30;12.70;47.50
80228;DHT22;69539;42.138;24.742;2024-03-08T02:43:56;12.70;47.40
80228;DHT22;69539;42.138;24.742;2024-03-08T02:46:22;12.60;48.40
80228;DHT22;69539;42.138;24.742;2024-03-08T02:48:47;12.60;47.40
80228;DHT22;69539;42.138;24.742;2024-03-08T02:51:13;12.60;47.50
80228;DHT22;69539;42.138;24.742;2024-03-08T02:53:39;12.70;47.60
80228;DHT22;69539;42.138;24.742;2024-03-08T02:56:05;12.70;47.60
80228;DHT22;69539;42.138;24.742;2024-03-08T02:58:34;12.70;47.50
80228;DHT22;69539;42.138;24.742;2024-03-08T03:01:00;12.70;47.40
80228;DHT22;69539;42.138;24.742;2024-03-08T03:03:25;12.60;47.40
80228;DHT22;69539;42.138;24.742;2024-03-08T03:05:52;12.60;47.40
80228;DHT22;69539;42.138;24.742;2024-03-08T03:08:21;12.60;47.50
80228;DHT22;69539;42.138;24.742;2024-03-08T03:10:47;12.60;47.60
80228;DHT22;69539;42.138;24.742;2024-03-08T03:13:12;12.60;47.60
80228;DHT22;69539;42.138;24.742;2024-03-08T03:15:39;12.60;47.60
80228;DHT22;69539;42.138;24.742;2024-03-08T03:18:07;12.60;47.80
80228;DHT22;69539;42.138;24.742;2024-03-08T03:20:33;12.60;47.80
80228;DHT22;69539;42.138;24.742;2024-03-08T03:23:02;12.60;47.90
80228;DHT22;69539;42.138;24.742;2024-03-08T03:25:28;12.50;48.10
80228;DHT22;69539;42.138;24.742;2024-03-08T03:27:59;12.50;48.30
80228;DHT22;69539;42.138;24.742;2024-03-08T03:30:25;12.50;48.50
80228;DHT22;69539;42.138;24.742;2024-03-08T03:33:01;12.50;48.60
80228;DHT22;69539;42.138;24.742;2024-03-08T03:35:30;12.50;48.90
80228;DHT22;69539;42.138;24.742;2024-03-08T03:37:56;12.40;49.20
80228;DHT22;69539;42.138;24.742;2024-03-08T03:40:34;12.40;49.20
80228;DHT22;69539;42.138;24.742;2024-03-08T03:43:01;12.30;49.30
80228;DHT22;69539;42.138;24.742;2024-03-08T03:45:28;12.30;49.50
80228;DHT22;69539;42.138;24.742;2024-03-08T03:47:54;12.30;49.60
80228;DHT22;69539;42.138;24.742;2024-03-08T03:50:20;12.30;49.70
80228;DHT22;69539;42.138;24.742;2024-03-08T03:52:47;12.30;49.90
80228;DHT22;69539;42.138;24.742;2024-03-08T03:55:13;12.30;50.00
80228;DHT22;69539;42.138;24.742;2024-03-08T03:57:39;12.30;50.00
80228;DHT22;69539;42.138;24.742;2024-03-08T04:00:07;12.30;50.00
80228;DHT22;69539;42.138;24.742;2024-03-08T04:02:40;12.30;50.20
80228;DHT22;69539;42.138;24.742;2024-03-08T04:05:07;12.30;50.20
80228;DHT22;69539;42.138;24.742;2024-03-08T04:07:33;12.30;50.20
80228;DHT22;69539;42.138;24.742;2024-03-08T04:10:00;12.30;50.20
80228;DHT22;69539;42.138;24.742;2024-03-08T04:12:26;12.30;50.30
80228;DHT22;69539;42.138;24.742;2024-03-08T04:14:54;12.30;50.30
80228;DHT22;69539;42.138;24.742;2024-03-08T04:17:21;12.20;50.30
80228;DHT22;69539;42.138;24.742;2024-03-08T04:19:46;12.20;50.40
80228;DHT22;69539;42.138;24.742;2024-03-08T04:22:14;12.20;50.40
80228;DHT22;69539;42.138;24.742;2024-03-08T04:24:39;12.20;50.50
80228;DHT22;69539;42.138;24.742;2024-03-08T04:27:06;12.20;50.50
80228;DHT22;69539;42.138;24.742;2024-03-08T04:29:32;12.20;50.40
80228;DHT22;69539;42.138;24.742;2024-03-08T04:32:00;12.20;50.30
80228;DHT22;69539;42.138;24.742;2024-03-08T04:34:26;12.10;51.30
80228;DHT22;69539;42.138;24.742;2024-03-08T04:36:54;12.20;50.30
80228;DHT22;69539;42.138;24.742;2024-03-08T04:39:19;12.10;50.20
80228;DHT22;69539;42.138;24.742;2024-03-08T04:41:47;12.20;50.20
80228;DHT22;69539;42.138;24.742;2024-03-08T04:44:12;12.10;50.00
80228;DHT22;69539;42.138;24.742;2024-03-08T04:46:38;12.10;50.00
80228;DHT22;69539;42.138;24.742;2024-03-08T04:49:04;12.10;49.90
80228;DHT22;69539;42.138;24.742;2024-03-08T04:51:29;12.10;49.80
80228;DHT22;69539;42.138;24.742;2024-03-08T04:53:55;12.10;49.80
80228;DHT22;69539;42.138;24.742;2024-03-08T04:56:22;12.10;49.70
80228;DHT22;69539;42.138;24.742;2024-03-08T04:58:48;12.10;49.50
80228;DHT22;69539;42.138;24.742;2024-03-08T05:01:14;12.10;49.50
80228;DHT22;69539;42.138;24.742;2024-03-08T05:03:39;12.10;49.50
80228;DHT22;69539;42.138;24.742;2024-03-08T05:06:05;12.00;49.50
80228;DHT22;69539;42.138;24.742;2024-03-08T05:08:31;12.00;49.40
80228;DHT22;69539;42.138;24.742;2024-03-08T05:10:56;12.00;49.30
80228;DHT22;69539;42.138;24.742;2024-03-08T05:13:22;12.00;49.30
80228;DHT22;69539;42.138;24.742;2024-03-08T05:15:49;12.00;49.20
80228;DHT22;69539;42.138;24.742;2024-03-08T05:18:16;12.00;49.20
80228;DHT22;69539;42.138;24.742;2024-03-08T05:20:41;12.00;49.30
80228;DHT22;69539;42.138;24.742;2024-03-08T05:23:07;12.00;49.30
80228;DHT22;69539;42.138;24.742;2024-03-08T05:25:33;12.00;49.30
80228;DHT22;69539;42.138;24.742;2024-03-08T05:27:59;12.00;49.40
80228;DHT22;69539;42.138;24.742;2024-03-08T05:30:25;12.00;49.30
80228;DHT22;69539;42.138;24.742;2024-03-08T05:32:50;12.00;49.30
80228;DHT22;69539;42.138;24.742;2024-03-08T05:35:16;12.00;49.30
80228;DHT22;69539;42.138;24.742;2024-03-08T05:37:42;12.00;49.50
80228;DHT22;69539;42.138;24.742;2024-03-08T05:40:10;12.00;49.90
80228;DHT22;69539;42.138;24.742;2024-03-08T05:42:36;12.00;51.10
80228;DHT22;69539;42.138;24.742;2024-03-08T05:45:02;12.00;50.20
80228;DHT22;69539;42.138;24.742;2024-03-08T05:47:28;12.00;50.50
80228;DHT22;69539;42.138;24.742;2024-03-08T05:49:54;12.00;50.20
80228;DHT22;69539;42.138;24.742;2024-03-08T05:52:20;12.10;49.90
80228;DHT22;69539;42.138;24.742;2024-03-08T05:54:45;12.10;49.50
80228;DHT22;69539;42.138;24.742;2024-03-08T05:57:12;12.10;49.20
80228;DHT22;69539;42.138;24.742;2024-03-08T05:59:39;12.10;49.10
80228;DHT22;69539;42.138;24.742;2024-03-08T06:02:05;12.10;49.10
80228;DHT22;69539;42.138;24.742;2024-03-08T06:04:31;12.10;49.40
80228;DHT22;69539;42.138;24.742;2024-03-08T06:06:56;12.10;49.50
80228;DHT22;69539;42.138;24.742;2024-03-08T06:09:24;12.10;49.50
80228;DHT22;69539;42.138;24.742;2024-03-08T06:11:50;12.10;49.30
80228;DHT22;69539;42.138;24.742;2024-03-08T06:14:16;12.10;49.00
80228;DHT22;69539;42.138;24.742;2024-03-08T06:16:47;12.10;49.00
80228;DHT22;69539;42.138;24.742;2024-03-08T06:19:13;12.10;49.50
80228;DHT22;69539;42.138;24.742;2024-03-08T06:21:39;12.20;49.70
80228;DHT22;69539;42.138;24.742;2024-03-08T06:24:05;12.20;49.80
80228;DHT22;69539;42.138;24.742;2024-03-08T06:26:31;12.20;50.00
80228;DHT22;69539;42.138;24.742;2024-03-08T06:28:57;12.30;49.40
80228;DHT22;69539;42.138;24.742;2024-03-08T06:31:23;12.40;49.00
80228;DHT22;69539;42.138;24.742;2024-03-08T06:33:49;12.30;48.50
80228;DHT22;69539;42.138;24.742;2024-03-08T06:36:18;12.40;48.40
80228;DHT22;69539;42.138;24.742;2024-03-08T06:38:45;12.30;48.60
80228;DHT22;69539;42.138;24.742;2024-03-08T06:41:11;12.30;49.50
80228;DHT22;69539;42.138;24.742;2024-03-08T06:43:44;12.40;50.90
80228;DHT22;69539;42.138;24.742;2024-03-08T06:46:09;12.40;51.00
80228;DHT22;69539;42.138;24.742;2024-03-08T06:48:38;12.40;50.90
80228;DHT22;69539;42.138;24.742;2024-03-08T06:51:04;12.40;51.60
80228;DHT22;69539;42.138;24.742;2024-03-08T06:53:30;12.50;51.30
80228;DHT22;69539;42.138;24.742;2024-03-08T06:55:57;12.50;51.60
80228;DHT22;69539;42.138;24.742;2024-03-08T06:58:23;12.50;52.00
80228;DHT22;69539;42.138;24.742;2024-03-08T07:00:49;12.60;50.80
80228;DHT22;69539;42.138;24.742;2024-03-08T07:03:17;12.60;49.70
80228;DHT22;69539;42.138;24.742;2024-03-08T07:05:43;12.60;49.20
80228;DHT22;69539;42.138;24.742;2024-03-08T07:08:09;12.60;48.80
80228;DHT22;69539;42.138;24.742;2024-03-08T07:10:34;12.60;48.80
80228;DHT22;69539;42.138;24.742;2024-03-08T07:13:02;12.50;48.60
80228;DHT22;69539;42.138;24.742;2024-03-08T07:15:28;12.50;48.60
80228;DHT22;69539;42.138;24.742;2024-03-08T07:17:54;12.60;48.60
80228;DHT22;69539;42.138;24.742;2024-03-08T07:20:21;12.50;48.40
80228;DHT22;69539;42.138;24.742;2024-03-08T07:22:47;12.50;48.30
80228;DHT22;69539;42.138;24.742;2024-03-08T07:25:14;12.50;48.20
80228;DHT22;69539;42.138;24.742;2024-03-08T07:27:55;12.50;48.10
80228;DHT22;69539;42.138;24.742;2024-03-08T07:30:22;12.50;48.20
80228;DHT22;69539;42.138;24.742;2024-03-08T07:33:07;12.50;48.20
80228;DHT22;69539;42.138;24.742;2024-03-08T07:35:33;12.40;48.20
80228;DHT22;69539;42.138;24.742;2024-03-08T07:38:05;12.40;48.20
80228;DHT22;69539;42.138;24.742;2024-03-08T07:40:41;12.40;48.00
80228;DHT22;69539;42.138;24.742;2024-03-08T07:43:10;12.40;47.80
80228;DHT22;69539;42.138;24.742;2024-03-08T07:45:37;12.50;47.60
80228;DHT22;69539;42.138;24.742;2024-03-08T07:48:03;12.50;47.60
80228;DHT22;69539;42.138;24.742;2024-03-08T07:50:29;12.50;47.50
80228;DHT22;69539;42.138;24.742;2024-03-08T07:52:55;12.60;47.40
80228;DHT22;69539;42.138;24.742;2024-03-08T07:55:20;12.60;47.10
80228;DHT22;69539;42.138;24.742;2024-03-08T07:57:49;12.70;46.80
80228;DHT22;69539;42.138;24.742;2024-03-08T08:00:15;12.70;46.60
80228;DHT22;69539;42.138;24.742;2024-03-08T08:02:46;12.70;46.40
80228;DHT22;69539;42.138;24.742;2024-03-08T08:05:14;12.70;46.30
80228;DHT22;69539;42.138;24.742;2024-03-08T08:07:39;12.70;46.20
80228;DHT22;69539;42.138;24.742;2024-03-08T08:10:09;12.80;47.40
80228;DHT22;69539;42.138;24.742;2024-03-08T08:12:40;12.80;46.20
80228;DHT22;69539;42.138;24.742;2024-03-08T08:15:07;12.80;46.10
80228;DHT22;69539;42.138;24.742;2024-03-08T08:17:33;12.80;46.10
80228;DHT22;69539;42.138;24.742;2024-03-08T08:20:00;12.80;45.90
80228;DHT22;69539;42.138;24.742;2024-03-08T08:22:25;12.80;45.90
80228;DHT22;69539;42.138;24.742;2024-03-08T08:24:51;12.80;45.90
80228;DHT22;69539;42.138;24.742;2024-03-08T08:27:17;12.90;45.90
80228;DHT22;69539;42.138;24.742;2024-03-08T08:29:43;12.90;46.00
80228;DHT22;69539;42.138;24.742;2024-03-08T08:32:08;12.90;46.10
80228;DHT22;69539;42.138;24.742;2024-03-08T08:34:36;12.90;45.90
80228;DHT22;69539;42.138;24.742;2024-03-08T08:37:01;13.00;45.50
80228;DHT22;69539;42.138;24.742;2024-03-08T08:39:27;13.00;45.40
80228;DHT22;69539;42.138;24.742;2024-03-08T08:41:53;13.10;45.20
80228;DHT22;69539;42.138;24.742;2024-03-08T08:44:18;13.10;45.60
80228;DHT22;69539;42.138;24.742;2024-03-08T08:46:44;13.20;45.20
80228;DHT22;69539;42.138;24.742;2024-03-08T08:49:10;13.20;44.80
80228;DHT22;69539;42.138;24.742;2024-03-08T08:51:41;13.30;44.70
80228;DHT22;69539;42.138;24.742;2024-03-08T08:54:07;13.40;44.50
80228;DHT22;69539;42.138;24.742;2024-03-08T08:56:33;13.50;44.50
80228;DHT22;69539;42.138;24.742;2024-03-08T08:58:59;13.50;44.30
80228;DHT22;69539;42.138;24.742;2024-03-08T09:01:24;13.60;44.30
80228;DHT22;69539;42.138;24.742;2024-03-08T09:03:50;13.70;44.00
80228;DHT22;69539;42.138;24.742;2024-03-08T09:06:16;13.70;43.70
80228;DHT22;69539;42.138;24.742;2024-03-08T09:08:42;13.70;43.50
80228;DHT22;69539;42.138;24.742;2024-03-08T09:11:10;13.80;43.40
80228;DHT22;69539;42.138;24.742;2024-03-08T09:13:35;13.80;43.20
80228;DHT22;69539;42.138;24.742;2024-03-08T09:16:02;13.90;42.80
80228;DHT22;69539;42.138;24.742;2024-03-08T09:18:30;13.90;42.60
80228;DHT22;69539;42.138;24.742;2024-03-08T09:20:57;14.10;42.40
80228;DHT22;69539;42.138;24.742;2024-03-08T09:23:23;14.20;41.90
80228;DHT22;69539;42.138;24.742;2024-03-08T09:25:49;14.30;42.60
80228;DHT22;69539;42.138;24.742;2024-03-08T09:28:15;14.30;41.10
80228;DHT22;69539;42.138;24.742;2024-03-08T09:30:41;14.40;40.70
80228;DHT22;69539;42.138;24.742;2024-03-08T09:33:07;14.40;40.50
80228;DHT22;69539;42.138;24.742;2024-03-08T09:35:33;14.60;40.50
80228;DHT22;69539;42.138;24.742;2024-03-08T09:37:58;14.60;40.30
80228;DHT22;69539;42.138;24.742;2024-03-08T09:40:24;14.70;40.10
80228;DHT22;69539;42.138;24.742;2024-03-08T09:42:51;14.70;39.80
80228;DHT22;69539;42.138;24.742;2024-03-08T09:45:19;14.80;39.60
80228;DHT22;69539;42.138;24.742;2024-03-08T09:47:47;14.80;39.60
80228;DHT22;69539;42.138;24.742;2024-03-08T09:50:14;14.70;39.50
80228;DHT22;69539;42.138;24.742;2024-03-08T09:52:41;14.70;39.60
80228;DHT22;69539;42.138;24.742;2024-03-08T09:55:10;14.70;40.60
80228;DHT22;69539;42.138;24.742;2024-03-08T09:57:43;14.70;39.60
80228;DHT22;69539;42.138;24.742;2024-03-08T10:00:28;14.60;39.70
80228;DHT22;69539;42.138;24.742;2024-03-08T10:02:54;14.50;39.90
80228;DHT22;69539;42.138;24.742;2024-03-08T10:05:25;14.60;39.90
80228;DHT22;69539;42.138;24.742;2024-03-08T10:07:51;14.50;39.90
80228;DHT22;69539;42.138;24.742;2024-03-08T10:10:16;14.50;40.00
80228;DHT22;69539;42.138;24.742;2024-03-08T10:12:42;14.60;40.00
80228;DHT22;69539;42.138;24.742;2024-03-08T10:15:08;14.60;40.00
80228;DHT22;69539;42.138;24.742;2024-03-08T10:17:37;14.60;39.90
80228;DHT22;69539;42.138;24.742;2024-03-08T10:20:02;14.60;39.90
80228;DHT22;69539;42.138;24.742;2024-03-08T10:22:30;14.60;40.40
80228;DHT22;69539;42.138;24.742;2024-03-08T10:24:57;14.60;41.50
80228;DHT22;69539;42.138;24.742;2024-03-08T10:27:23;14.70;41.00
80228;DHT22;69539;42.138;24.742;2024-03-08T10:29:49;14.70;40.60
80228;DHT22;69539;42.138;24.742;2024-03-08T10:32:17;14.70;40.80
80228;DHT22;69539;42.138;24.742;2024-03-08T10:34:42;14.80;40.90
80228;DHT22;69539;42.138;24.742;2024-03-08T10:37:13;14.80;40.40
80228;DHT22;69539;42.138;24.742;2024-03-08T10:39:46;14.80;39.80
80228;DHT22;69539;42.138;24.742;2024-03-08T10:42:16;14.90;39.70
80228;DHT22;69539;42.138;24.742;2024-03-08T10:44:49;14.90;39.60
80228;DHT22;69539;42.138;24.742;2024-03-08T10:47:26;14.90;39.60
80228;DHT22;69539;42.138;24.742;2024-03-08T10:52:33;15.00;40.40
80228;DHT22;69539;42.138;24.742;2024-03-08T10:55:01;15.10;39.10
80228;DHT22;69539;42.138;24.742;2024-03-08T10:57:27;15.20;38.90
80228;DHT22;69539;42.138;24.742;2024-03-08T10:59:55;15.30;38.60
80228;DHT22;69539;42.138;24.742;2024-03-08T11:02:20;15.30;38.10
80228;DHT22;69539;42.138;24.742;2024-03-08T11:04:50;15.40;37.70
80228;DHT22;69539;42.138;24.742;2024-03-08T11:07:16;15.50;37.90
80228;DHT22;69539;42.138;24.742;2024-03-08T11:09:44;15.60;37.70
80228;DHT22;69539;42.138;24.742;2024-03-08T11:12:24;15.70;37.70
80228;DHT22;69539;42.138;24.742;2024-03-08T11:15:10;15.70;37.40
80228;DHT22;69539;42.138;24.742;2024-03-08T11:20:15;16.00;37.10
80228;DHT22;69539;42.138;24.742;2024-03-08T11:23:01;16.20;37.90
80228;DHT22;69539;42.138;24.742;2024-03-08T11:25:40;16.40;36.20
80228;DHT22;69539;42.138;24.742;2024-03-08T11:28:16;16.60;35.90
80228;DHT22;69539;42.138;24.742;2024-03-08T11:30:47;16.80;35.40
80228;DHT22;69539;42.138;24.742;2024-03-08T11:33:35;16.90;34.90
80228;DHT22;69539;42.138;24.742;2024-03-08T11:36:20;17.00;34.20
80228;DHT22;69539;42.138;24.742;2024-03-08T11:38:51;17.10;34.10
80228;DHT22;69539;42.138;24.742;2024-03-08T11:41:19;17.00;34.20
80228;DHT22;69539;42.138;24.742;2024-03-08T11:43:45;17.10;34.50
80228;DHT22;69539;42.138;24.742;2024-03-08T11:46:12;17.20;34.30
80228;DHT22;69539;42.138;24.742;2024-03-08T11:48:39;17.40;34.10
80228;DHT22;69539;42.138;24.742;2024-03-08T11:51:10;17.70;33.90
80228;DHT22;69539;42.138;24.742;2024-03-08T11:53:37;17.80;33.50
80228;DHT22;69539;42.138;24.742;2024-03-08T11:56:10;17.90;33.00
80228;DHT22;69539;42.138;24.742;2024-03-08T11:58:40;18.10;32.90
80228;DHT22;69539;42.138;24.742;2024-03-08T12:01:10;18.20;32.30
80228;DHT22;69539;42.138;24.742;2024-03-08T12:03:41;18.30;32.20
80228;DHT22;69539;42.138;24.742;2024-03-08T12:06:10;18.40;31.70
80228;DHT22;69539;42.138;24.742;2024-03-08T12:08:38;18.50;31.30
80228;DHT22;69539;42.138;24.742;2024-03-08T12:11:07;18.60;30.70
80228;DHT22;69539;42.138;24.742;2024-03-08T12:13:35;18.60;30.80
80228;DHT22;69539;42.138;24.742;2024-03-08T12:16:03;18.60;30.70
80228;DHT22;69539;42.138;24.742;2024-03-08T12:18:37;18.60;30.70
80228;DHT22;69539;42.138;24.742;2024-03-08T12:23:35;18.70;30.60
80228;DHT22;69539;42.138;24.742;2024-03-08T12:26:15;18.80;30.70
80228;DHT22;69539;42.138;24.742;2024-03-08T12:28:42;18.80;30.40
80228;DHT22;69539;42.138;24.742;2024-03-08T12:31:14;18.80;30.40
80228;DHT22;69539;42.138;24.742;2024-03-08T12:33:49;18.90;30.40
80228;DHT22;69539;42.138;24.742;2024-03-08T12:36:16;18.90;30.70
80228;DHT22;69539;42.138;24.742;2024-03-08T12:38:49;18.80;30.80
80228;DHT22;69539;42.138;24.742;2024-03-08T12:41:15;18.70;31.20
80228;DHT22;69539;42.138;24.742;2024-03-08T12:43:43;18.60;31.40
80228;DHT22;69539;42.138;24.742;2024-03-08T12:46:14;18.40;31.70
80228;DHT22;69539;42.138;24.742;2024-03-08T12:48:40;18.30;31.80
80228;DHT22;69539;42.138;24.742;2024-03-08T12:51:08;18.10;32.30
80228;DHT22;69539;42.138;24.742;2024-03-08T12:53:34;18.00;32.60
80228;DHT22;69539;42.138;24.742;2024-03-08T12:56:00;17.90;32.70
80228;DHT22;69539;42.138;24.742;2024-03-08T12:58:26;17.80;32.70
80228;DHT22;69539;42.138;24.742;2024-03-08T13:00:52;17.70;32.80
80228;DHT22;69539;42.138;24.742;2024-03-08T13:03:17;17.60;32.80
80228;DHT22;69539;42.138;24.742;2024-03-08T13:05:43;17.50;33.30
80228;DHT22;69539;42.138;24.742;2024-03-08T13:08:09;17.50;33.30
80228;DHT22;69539;42.138;24.742;2024-03-08T13:10:41;17.40;33.10
80228;DHT22;69539;42.138;24.742;2024-03-08T13:13:11;17.40;33.30
80228;DHT22;69539;42.138;24.742;2024-03-08T13:15:40;17.30;33.60
80228;DHT22;69539;42.138;24.742;2024-03-08T13:18:06;17.30;33.30
80228;DHT22;69539;42.138;24.742;2024-03-08T13:20:34;17.30;33.20
80228;DHT22;69539;42.138;24.742;2024-03-08T13:23:03;17.20;33.20
80228;DHT22;69539;42.138;24.742;2024-03-08T13:25:30;17.20;33.80
80228;DHT22;69539;42.138;24.742;2024-03-08T13:27:56;17.20;33.50
80228;DHT22;69539;42.138;24.742;2024-03-08T13:30:24;17.10;33.90
80228;DHT22;69539;42.138;24.742;2024-03-08T13:32:52;17.20;34.30
80228;DHT22;69539;42.138;24.742;2024-03-08T13:35:18;17.20;33.80
80228;DHT22;69539;42.138;24.742;2024-03-08T13:37:50;17.10;33.50
80228;DHT22;69539;42.138;24.742;2024-03-08T13:40:16;17.20;33.40
80228;DHT22;69539;42.138;24.742;2024-03-08T13:42:46;17.10;33.00
80228;DHT22;69539;42.138;24.742;2024-03-08T13:45:12;17.10;33.00
80228;DHT22;69539;42.138;24.742;2024-03-08T13:47:39;17.00;32.70
80228;DHT22;69539;42.138;24.742;2024-03-08T13:50:06;16.90;33.10
80228;DHT22;69539;42.138;24.742;2024-03-08T13:52:33;16.90;33.40
80228;DHT22;69539;42.138;24.742;2024-03-08T13:55:00;16.80;33.90
80228;DHT22;69539;42.138;24.742;2024-03-08T13:57:26;16.80;34.60
80228;DHT22;69539;42.138;24.742;2024-03-08T13:59:53;16.80;34.30
80228;DHT22;69539;42.138;24.742;2024-03-08T14:02:18;16.80;34.00
80228;DHT22;69539;42.138;24.742;2024-03-08T14:04:44;16.80;33.80
80228;DHT22;69539;42.138;24.742;2024-03-08T14:07:10;16.80;34.00
80228;DHT22;69539;42.138;24.742;2024-03-08T14:09:37;16.80;33.80
80228;DHT22;69539;42.138;24.742;2024-03-08T14:12:08;16.80;33.80
80228;DHT22;69539;42.138;24.742;2024-03-08T14:14:34;16.80;34.30
80228;DHT22;69539;42.138;24.742;2024-03-08T14:17:03;16.70;34.20
80228;DHT22;69539;42.138;24.742;2024-03-08T14:19:30;16.70;34.30
80228;DHT22;69539;42.138;24.742;2024-03-08T14:21:56;16.60;34.50
80228;DHT22;69539;42.138;24.742;2024-03-08T14:24:24;16.60;36.40
80228;DHT22;69539;42.138;24.742;2024-03-08T14:26:50;16.50;35.00
80228;DHT22;69539;42.138;24.742;2024-03-08T14:29:16;16.50;35.00
80228;DHT22;69539;42.138;24.742;2024-03-08T14:31:43;16.50;34.90
80228;DHT22;69539;42.138;24.742;2024-03-08T14:34:09;16.50;34.90
80228;DHT22;69539;42.138;24.742;2024-03-08T14:36:34;16.40;35.00
80228;DHT22;69539;42.138;24.742;2024-03-08T14:39:00;16.40;34.90
80228;DHT22;69539;42.138;24.742;2024-03-08T14:41:26;16.40;34.90
80228;DHT22;69539;42.138;24.742;2024-03-08T14:43:52;16.40;34.60
80228;DHT22;69539;42.138;24.742;2024-03-08T14:46:19;16.30;34.60
80228;DHT22;69539;42.138;24.742;2024-03-08T14:48:55;16.30;34.80
80228;DHT22;69539;42.138;24.742;2024-03-08T14:51:22;16.30;34.90
80228;DHT22;69539;42.138;24.742;2024-03-08T14:53:52;16.20;35.10
80228;DHT22;69539;42.138;24.742;2024-03-08T14:56:18;16.20;35.50
80228;DHT22;69539;42.138;24.742;2024-03-08T14:58:47;16.10;35.70
80228;DHT22;69539;42.138;24.742;2024-03-08T15:01:15;16.00;36.00
80228;DHT22;69539;42.138;24.742;2024-03-08T15:03:41;16.00;36.30
80228;DHT22;69539;42.138;24.742;2024-03-08T15:06:08;15.90;36.50
80228;DHT22;69539;42.138;24.742;2024-03-08T15:08:38;15.80;36.70
80228;DHT22;69539;42.138;24.742;2024-03-08T15:11:05;15.70;36.90
80228;DHT22;69539;42.138;24.742;2024-03-08T15:13:32;15.70;37.20
80228;DHT22;69539;42.138;24.742;2024-03-08T15:16:10;15.60;37.20
80228;DHT22;69539;42.138;24.742;2024-03-08T15:18:43;15.60;37.30
80228;DHT22;69539;42.138;24.742;2024-03-08T15:21:13;15.50;37.40
80228;DHT22;69539;42.138;24.742;2024-03-08T15:23:43;15.50;37.40